sensor_id;sensor_type;location;lat;lon;timestamp;temperature;humidity
3925;DHT22;1977;52.274;10.518;2023-12-22T00:01:44;6.20;99.90
3925;DHT22;1977;52.274;10.518;2023-12-22T00:04:11;6.40;99.90
3925;DHT22;1977;52.274;10.518;2023-12-22T00:06:40;6.10;99.90
3925;DHT22;1977;52.274;10.518;2023-12-22T00:09:08;6.30;99.90
3925;DHT22;1977;52.274;10.518;2023-12-22T00:11:35;6.00;99.90
3925;DHT22;1977;52.274;10.518;2023-12-22T00:14:01;6.20;99.90
3925;DHT22;1977;52.274;10.518;2023-12-22T00:16:28;6.00;99.90
3925;DHT22;1977;52.274;10.518;2023-12-22T00:18:55;6.00;99.90
3925;DHT22;1977;52.274;10.518;2023-12-22T00:21:23;6.00;99.90
3925;DHT22;1977;52.274;10.518;2023-12-22T00:23:49;6.00;99.90
3925;DHT22;1977;52.274;10.518;2023-12-22T00:26:17;6.10;99.90
3925;DHT22;1977;52.274;10.518;2023-12-22T00:28:44;6.10;99.90
3925;DHT22;1977;52.274;10.518;2023-12-22T00:31:11;6.10;99.90
3925;DHT22;1977;52.274;10.518;2023-12-22T00:33:38;6.10;99.90
3925;DHT22;1977;52.274;10.518;2023-12-22T00:36:05;6.10;99.90
3925;DHT22;1977;52.274;10.518;2023-12-22T00:38:32;6.10;99.90
3925;DHT22;1977;52.274;10.518;2023-12-22T00:40:59;6.10;99.90
3925;DHT22;1977;52.274;10.518;2023-12-22T00:43:27;6.10;99.90
3925;DHT22;1977;52.274;10.518;2023-12-22T00:45:54;6.20;99.90
3925;DHT22;1977;52.274;10.518;2023-12-22T00:48:21;6.20;99.90
3925;DHT22;1977;52.274;10.518;2023-12-22T00:50:48;6.40;99.90
3925;DHT22;1977;52.274;10.518;2023-12-22T00:53:15;6.30;99.90
3925;DHT22;1977;52.274;10.518;2023-12-22T00:55:41;6.30;99.90
3925;DHT22;1977;52.274;10.518;2023-12-22T00:58:08;6.30;99.90
3925;DHT22;1977;52.274;10.518;2023-12-22T01:00:36;6.50;99.90
3925;DHT22;1977;52.274;10.518;2023-12-22T01:03:02;6.30;99.90
3925;DHT22;1977;52.274;10.518;2023-12-22T01:05:30;6.30;99.90
3925;DHT22;1977;52.274;10.518;2023-12-22T01:07:56;6.30;99.90
3925;DHT22;1977;52.274;10.518;2023-12-22T01:10:23;6.30;99.90
3925;DHT22;1977;52.274;10.518;2023-12-22T01:12:50;6.20;99.90
3925;DHT22;1977;52.274;10.518;2023-12-22T01:15:17;6.30;99.90
3925;DHT22;1977;52.274;10.518;2023-12-22T01:17:45;6.20;99.90
3925;DHT22;1977;52.274;10.518;2023-12-22T01:20:12;6.20;99.90
3925;DHT22;1977;52.274;10.518;2023-12-22T01:22:39;6.20;99.90
3925;DHT22;1977;52.274;10.518;2023-12-22T01:25:06;6.40;99.90
3925;DHT22;1977;52.274;10.518;2023-12-22T01:27:33;6.20;99.90
3925;DHT22;1977;52.274;10.518;2023-12-22T01:30:00;6.20;99.90
3925;DHT22;1977;52.274;10.518;2023-12-22T01:32:27;6.20;99.90
3925;DHT22;1977;52.274;10.518;2023-12-22T01:37:34;6.20;99.90
3925;DHT22;1977;52.274;10.518;2023-12-22T01:40:01;6.20;99.90
3925;DHT22;1977;52.274;10.518;2023-12-22T01:42:28;6.30;99.90
3925;DHT22;1977;52.274;10.518;2023-12-22T01:44:55;6.30;99.90
3925;DHT22;1977;52.274;10.518;2023-12-22T01:47:22;6.30;99.90
3925;DHT22;1977;52.274;10.518;2023-12-22T01:49:50;6.60;99.90
3925;DHT22;1977;52.274;10.518;2023-12-22T01:52:19;6.40;99.90
3925;DHT22;1977;52.274;10.518;2023-12-22T01:54:45;6.40;99.90
3925;DHT22;1977;52.274;10.518;2023-12-22T01:57:14;6.40;99.90
3925;DHT22;1977;52.274;10.518;2023-12-22T01:59:43;6.40;99.90
3925;DHT22;1977;52.274;10.518;2023-12-22T02:02:10;6.40;99.90
3925;DHT22;1977;52.274;10.518;2023-12-22T02:04:37;6.40;99.90
3925;DHT22;1977;52.274;10.518;2023-12-22T02:07:04;6.40;99.90
3925;DHT22;1977;52.274;10.518;2023-12-22T02:09:35;6.50;99.90
3925;DHT22;1977;52.274;10.518;2023-12-22T02:12:03;6.50;99.90
3925;DHT22;1977;52.274;10.518;2023-12-22T02:14:30;6.50;99.90
3925;DHT22;1977;52.274;10.518;2023-12-22T02:17:02;6.40;99.90
3925;DHT22;1977;52.274;10.518;2023-12-22T02:19:40;6.40;99.90
3925;DHT22;1977;52.274;10.518;2023-12-22T02:22:10;6.40;99.90
3925;DHT22;1977;52.274;10.518;2023-12-22T02:24:38;6.40;99.90
3925;DHT22;1977;52.274;10.518;2023-12-22T02:27:07;6.40;99.90
3925;DHT22;1977;52.274;10.518;2023-12-22T02:29:43;6.40;99.90
3925;DHT22;1977;52.274;10.518;2023-12-22T02:32:19;6.40;99.90
3925;DHT22;1977;52.274;10.518;2023-12-22T02:34:50;6.40;99.90
3925;DHT22;1977;52.274;10.518;2023-12-22T02:37:20;6.30;99.90
3925;DHT22;1977;52.274;10.518;2023-12-22T02:39:49;6.30;99.90
3925;DHT22;1977;52.274;10.518;2023-12-22T02:42:17;6.20;99.90
3925;DHT22;1977;52.274;10.518;2023-12-22T02:44:45;6.20;99.90
3925;DHT22;1977;52.274;10.518;2023-12-22T02:47:11;6.20;99.90
3925;DHT22;1977;52.274;10.518;2023-12-22T02:49:37;6.20;99.90
3925;DHT22;1977;52.274;10.518;2023-12-22T02:52:05;6.20;99.90
3925;DHT22;1977;52.274;10.518;2023-12-22T02:54:32;6.20;99.90
3925;DHT22;1977;52.274;10.518;2023-12-22T02:57:00;6.20;99.90
3925;DHT22;1977;52.274;10.518;2023-12-22T02:59:27;6.20;99.90
3925;DHT22;1977;52.274;10.518;2023-12-22T03:01:54;6.20;99.90
3925;DHT22;1977;52.274;10.518;2023-12-22T03:04:20;6.20;99.90
3925;DHT22;1977;52.274;10.518;2023-12-22T03:06:47;6.20;99.90
3925;DHT22;1977;52.274;10.518;2023-12-22T03:09:14;6.20;99.90
3925;DHT22;1977;52.274;10.518;2023-12-22T03:11:41;6.10;99.90
3925;DHT22;1977;52.274;10.518;2023-12-22T03:14:09;6.20;99.90
3925;DHT22;1977;52.274;10.518;2023-12-22T03:16:36;6.10;99.90
3925;DHT22;1977;52.274;10.518;2023-12-22T03:19:03;6.10;99.90
3925;DHT22;1977;52.274;10.518;2023-12-22T03:21:30;6.10;99.90
3925;DHT22;1977;52.274;10.518;2023-12-22T03:23:56;6.10;99.90
3925;DHT22;1977;52.274;10.518;2023-12-22T03:26:23;5.90;99.90
3925;DHT22;1977;52.274;10.518;2023-12-22T03:28:52;6.00;99.90
3925;DHT22;1977;52.274;10.518;2023-12-22T03:31:20;5.90;99.90
3925;DHT22;1977;52.274;10.518;2023-12-22T03:33:47;5.80;99.90
3925;DHT22;1977;52.274;10.518;2023-12-22T03:36:14;5.80;99.90
3925;DHT22;1977;52.274;10.518;2023-12-22T03:38:40;5.80;99.90
3925;DHT22;1977;52.274;10.518;2023-12-22T03:41:07;5.70;99.90
3925;DHT22;1977;52.274;10.518;2023-12-22T03:43:34;5.60;99.90
3925;DHT22;1977;52.274;10.518;2023-12-22T03:46:01;5.60;99.90
3925;DHT22;1977;52.274;10.518;2023-12-22T03:48:29;5.60;99.90
3925;DHT22;1977;52.274;10.518;2023-12-22T03:50:56;5.60;99.90
3925;DHT22;1977;52.274;10.518;2023-12-22T03:53:23;5.60;99.90
3925;DHT22;1977;52.274;10.518;2023-12-22T03:55:50;5.60;99.90
3925;DHT22;1977;52.274;10.518;2023-12-22T03:58:16;5.60;99.90
3925;DHT22;1977;52.274;10.518;2023-12-22T04:00:43;5.70;99.90
3925;DHT22;1977;52.274;10.518;2023-12-22T04:03:10;5.50;99.90
3925;DHT22;1977;52.274;10.518;2023-12-22T04:05:38;5.60;99.90
3925;DHT22;1977;52.274;10.518;2023-12-22T04:08:05;5.50;99.90
3925;DHT22;1977;52.274;10.518;2023-12-22T04:10:32;5.50;99.90
3925;DHT22;1977;52.274;10.518;2023-12-22T04:12:59;5.40;99.90
3925;DHT22;1977;52.274;10.518;2023-12-22T04:15:26;5.40;99.90
3925;DHT22;1977;52.274;10.518;2023-12-22T04:17:52;5.40;99.90
3925;DHT22;1977;52.274;10.518;2023-12-22T04:20:19;5.40;99.90
3925;DHT22;1977;52.274;10.518;2023-12-22T04:22:47;5.40;99.90
3925;DHT22;1977;52.274;10.518;2023-12-22T04:25:14;5.40;99.90
3925;DHT22;1977;52.274;10.518;2023-12-22T04:27:41;5.40;99.90
3925;DHT22;1977;52.274;10.518;2023-12-22T04:30:09;5.40;99.90
3925;DHT22;1977;52.274;10.518;2023-12-22T04:32:36;5.40;99.90
3925;DHT22;1977;52.274;10.518;2023-12-22T04:35:03;5.40;99.90
3925;DHT22;1977;52.274;10.518;2023-12-22T04:37:30;5.40;99.90
3925;DHT22;1977;52.274;10.518;2023-12-22T04:39:58;5.40;99.90
3925;DHT22;1977;52.274;10.518;2023-12-22T04:42:25;5.40;99.90
3925;DHT22;1977;52.274;10.518;2023-12-22T04:44:52;5.50;99.90
3925;DHT22;1977;52.274;10.518;2023-12-22T04:47:19;5.50;99.90
3925;DHT22;1977;52.274;10.518;2023-12-22T04:49:46;5.60;99.90
3925;DHT22;1977;52.274;10.518;2023-12-22T04:52:13;5.60;99.90
3925;DHT22;1977;52.274;10.518;2023-12-22T04:54:40;5.70;99.90
3925;DHT22;1977;52.274;10.518;2023-12-22T04:57:08;5.70;99.90
3925;DHT22;1977;52.274;10.518;2023-12-22T04:59:34;5.70;99.90
3925;DHT22;1977;52.274;10.518;2023-12-22T05:02:01;5.70;99.90
3925;DHT22;1977;52.274;10.518;2023-12-22T05:04:28;5.60;99.90
3925;DHT22;1977;52.274;10.518;2023-12-22T05:06:55;5.60;99.90
3925;DHT22;1977;52.274;10.518;2023-12-22T05:09:23;5.60;99.90
3925;DHT22;1977;52.274;10.518;2023-12-22T05:11:50;5.60;99.90
3925;DHT22;1977;52.274;10.518;2023-12-22T05:14:18;5.80;99.90
3925;DHT22;1977;52.274;10.518;2023-12-22T05:16:45;5.50;99.90
3925;DHT22;1977;52.274;10.518;2023-12-22T05:19:12;5.50;99.90
3925;DHT22;1977;52.274;10.518;2023-12-22T05:21:39;5.50;99.90
3925;DHT22;1977;52.274;10.518;2023-12-22T05:24:06;5.50;99.90
3925;DHT22;1977;52.274;10.518;2023-12-22T05:26:32;5.50;99.90
3925;DHT22;1977;52.274;10.518;2023-12-22T05:29:00;5.50;99.90
3925;DHT22;1977;52.274;10.518;2023-12-22T05:31:28;5.60;99.90
3925;DHT22;1977;52.274;10.518;2023-12-22T05:33:56;5.60;99.90
3925;DHT22;1977;52.274;10.518;2023-12-22T05:36:24;5.60;99.90
3925;DHT22;1977;52.274;10.518;2023-12-22T05:38:51;5.60;99.90
3925;DHT22;1977;52.274;10.518;2023-12-22T05:41:18;5.60;99.90
3925;DHT22;1977;52.274;10.518;2023-12-22T05:43:45;5.70;99.90
3925;DHT22;1977;52.274;10.518;2023-12-22T05:46:11;5.70;99.90
3925;DHT22;1977;52.274;10.518;2023-12-22T05:48:39;5.70;99.90
3925;DHT22;1977;52.274;10.518;2023-12-22T05:51:06;5.70;99.90
3925;DHT22;1977;52.274;10.518;2023-12-22T05:53:38;5.70;99.90
3925;DHT22;1977;52.274;10.518;2023-12-22T05:56:06;5.70;99.90
3925;DHT22;1977;52.274;10.518;2023-12-22T05:58:42;5.70;99.90
3925;DHT22;1977;52.274;10.518;2023-12-22T06:01:14;5.70;99.90
3925;DHT22;1977;52.274;10.518;2023-12-22T06:03:42;5.60;99.90
3925;DHT22;1977;52.274;10.518;2023-12-22T06:06:09;5.60;99.90
3925;DHT22;1977;52.274;10.518;2023-12-22T06:08:37;5.70;99.90
3925;DHT22;1977;52.274;10.518;2023-12-22T06:11:04;5.70;99.90
3925;DHT22;1977;52.274;10.518;2023-12-22T06:13:31;5.70;99.90
3925;DHT22;1977;52.274;10.518;2023-12-22T06:15:58;5.70;99.90
3925;DHT22;1977;52.274;10.518;2023-12-22T06:18:25;5.70;99.90
3925;DHT22;1977;52.274;10.518;2023-12-22T06:20:53;5.70;99.90
3925;DHT22;1977;52.274;10.518;2023-12-22T06:23:20;5.70;99.90
3925;DHT22;1977;52.274;10.518;2023-12-22T06:25:47;5.70;99.90
3925;DHT22;1977;52.274;10.518;2023-12-22T06:28:13;5.90;99.90
3925;DHT22;1977;52.274;10.518;2023-12-22T06:30:42;5.70;99.90
3925;DHT22;1977;52.274;10.518;2023-12-22T06:33:09;5.70;99.90
3925;DHT22;1977;52.274;10.518;2023-12-22T06:35:36;5.70;99.90
3925;DHT22;1977;52.274;10.518;2023-12-22T06:38:07;5.90;99.90
3925;DHT22;1977;52.274;10.518;2023-12-22T06:40:35;5.70;99.90
3925;DHT22;1977;52.274;10.518;2023-12-22T06:43:03;5.70;99.90
3925;DHT22;1977;52.274;10.518;2023-12-22T06:45:30;5.80;99.90
3925;DHT22;1977;52.274;10.518;2023-12-22T06:47:56;5.80;99.90
3925;DHT22;1977;52.274;10.518;2023-12-22T06:50:23;5.80;99.90
3925;DHT22;1977;52.274;10.518;2023-12-22T06:52:50;5.70;99.90
3925;DHT22;1977;52.274;10.518;2023-12-22T06:55:20;5.80;99.90
3925;DHT22;1977;52.274;10.518;2023-12-22T06:57:46;5.80;99.90
3925;DHT22;1977;52.274;10.518;2023-12-22T07:00:14;5.80;99.90
3925;DHT22;1977;52.274;10.518;2023-12-22T07:02:41;5.90;99.90
3925;DHT22;1977;52.274;10.518;2023-12-22T07:05:33;6.20;99.90
3925;DHT22;1977;52.274;10.518;2023-12-22T07:08:05;6.40;99.90
3925;DHT22;1977;52.274;10.518;2023-12-22T07:10:33;6.60;99.90
3925;DHT22;1977;52.274;10.518;2023-12-22T07:13:00;6.70;99.90
3925;DHT22;1977;52.274;10.518;2023-12-22T07:15:27;6.60;99.90
3925;DHT22;1977;52.274;10.518;2023-12-22T07:17:54;6.50;99.90
3925;DHT22;1977;52.274;10.518;2023-12-22T07:20:21;6.30;99.90
3925;DHT22;1977;52.274;10.518;2023-12-22T07:22:47;6.10;99.90
3925;DHT22;1977;52.274;10.518;2023-12-22T07:25:15;6.00;99.90
3925;DHT22;1977;52.274;10.518;2023-12-22T07:27:45;6.00;99.90
3925;DHT22;1977;52.274;10.518;2023-12-22T07:30:13;6.00;99.90
3925;DHT22;1977;52.274;10.518;2023-12-22T07:32:45;5.90;99.90
3925;DHT22;1977;52.274;10.518;2023-12-22T07:35:15;5.80;99.90
3925;DHT22;1977;52.274;10.518;2023-12-22T07:37:41;5.80;99.90
3925;DHT22;1977;52.274;10.518;2023-12-22T07:40:09;5.70;99.90
3925;DHT22;1977;52.274;10.518;2023-12-22T07:42:36;5.70;99.90
3925;DHT22;1977;52.274;10.518;2023-12-22T07:45:05;5.70;99.90
3925;DHT22;1977;52.274;10.518;2023-12-22T07:47:33;5.70;99.90
3925;DHT22;1977;52.274;10.518;2023-12-22T07:50:00;5.60;99.90
3925;DHT22;1977;52.274;10.518;2023-12-22T07:52:27;5.70;99.90
3925;DHT22;1977;52.274;10.518;2023-12-22T07:54:54;5.70;99.90
3925;DHT22;1977;52.274;10.518;2023-12-22T07:57:20;5.70;99.90
3925;DHT22;1977;52.274;10.518;2023-12-22T07:59:47;5.70;99.90
3925;DHT22;1977;52.274;10.518;2023-12-22T08:02:15;5.70;99.90
3925;DHT22;1977;52.274;10.518;2023-12-22T08:04:42;5.70;99.90
3925;DHT22;1977;52.274;10.518;2023-12-22T08:07:08;5.70;99.90
3925;DHT22;1977;52.274;10.518;2023-12-22T08:09:35;5.60;99.90
3925;DHT22;1977;52.274;10.518;2023-12-22T08:12:01;5.60;99.90
3925;DHT22;1977;52.274;10.518;2023-12-22T08:14:28;5.60;99.90
3925;DHT22;1977;52.274;10.518;2023-12-22T08:16:54;5.60;99.90
3925;DHT22;1977;52.274;10.518;2023-12-22T08:19:22;5.60;99.90
3925;DHT22;1977;52.274;10.518;2023-12-22T08:21:52;5.60;99.90
3925;DHT22;1977;52.274;10.518;2023-12-22T08:24:19;5.70;99.90
3925;DHT22;1977;52.274;10.518;2023-12-22T08:26:45;5.60;99.90
3925;DHT22;1977;52.274;10.518;2023-12-22T08:29:12;5.50;99.90
3925;DHT22;1977;52.274;10.518;2023-12-22T08:31:39;5.40;99.90
3925;DHT22;1977;52.274;10.518;2023-12-22T08:34:06;5.40;99.90
3925;DHT22;1977;52.274;10.518;2023-12-22T08:36:34;5.30;99.90
3925;DHT22;1977;52.274;10.518;2023-12-22T08:39:00;5.30;99.90
3925;DHT22;1977;52.274;10.518;2023-12-22T08:41:27;5.40;99.90
3925;DHT22;1977;52.274;10.518;2023-12-22T08:43:54;5.40;99.90
3925;DHT22;1977;52.274;10.518;2023-12-22T08:46:20;5.50;99.90
3925;DHT22;1977;52.274;10.518;2023-12-22T08:48:50;5.50;99.90
3925;DHT22;1977;52.274;10.518;2023-12-22T08:51:17;5.50;99.90
3925;DHT22;1977;52.274;10.518;2023-12-22T08:53:45;5.50;99.90
3925;DHT22;1977;52.274;10.518;2023-12-22T08:56:11;5.60;99.90
3925;DHT22;1977;52.274;10.518;2023-12-22T08:58:38;5.60;99.90
3925;DHT22;1977;52.274;10.518;2023-12-22T09:01:06;5.50;99.90
3925;DHT22;1977;52.274;10.518;2023-12-22T09:03:33;5.50;99.90
3925;DHT22;1977;52.274;10.518;2023-12-22T09:06:01;5.60;99.90
3925;DHT22;1977;52.274;10.518;2023-12-22T09:08:28;5.70;99.90
3925;DHT22;1977;52.274;10.518;2023-12-22T09:10:56;5.70;99.90
3925;DHT22;1977;52.274;10.518;2023-12-22T09:13:23;5.80;99.90
3925;DHT22;1977;52.274;10.518;2023-12-22T09:15:50;5.80;99.90
3925;DHT22;1977;52.274;10.518;2023-12-22T09:18:16;5.90;99.90
3925;DHT22;1977;52.274;10.518;2023-12-22T09:20:43;6.00;99.90
3925;DHT22;1977;52.274;10.518;2023-12-22T09:23:10;6.00;99.90
3925;DHT22;1977;52.274;10.518;2023-12-22T09:25:37;6.00;99.90
3925;DHT22;1977;52.274;10.518;2023-12-22T09:28:05;6.10;99.90
3925;DHT22;1977;52.274;10.518;2023-12-22T09:30:32;6.10;99.90
3925;DHT22;1977;52.274;10.518;2023-12-22T09:32:59;6.20;99.90
3925;DHT22;1977;52.274;10.518;2023-12-22T09:35:27;6.30;99.90
3925;DHT22;1977;52.274;10.518;2023-12-22T09:37:53;6.40;99.90
3925;DHT22;1977;52.274;10.518;2023-12-22T09:40:20;6.50;99.90
3925;DHT22;1977;52.274;10.518;2023-12-22T09:42:48;6.60;99.90
3925;DHT22;1977;52.274;10.518;2023-12-22T09:45:17;6.60;99.90
3925;DHT22;1977;52.274;10.518;2023-12-22T09:47:45;6.70;99.90
3925;DHT22;1977;52.274;10.518;2023-12-22T09:50:12;6.70;99.90
3925;DHT22;1977;52.274;10.518;2023-12-22T09:52:42;6.70;99.90
3925;DHT22;1977;52.274;10.518;2023-12-22T09:55:09;6.70;99.90
3925;DHT22;1977;52.274;10.518;2023-12-22T09:57:37;6.70;99.90
3925;DHT22;1977;52.274;10.518;2023-12-22T10:00:07;6.70;99.90
3925;DHT22;1977;52.274;10.518;2023-12-22T10:02:36;6.60;99.90
3925;DHT22;1977;52.274;10.518;2023-12-22T10:05:03;6.50;99.90
3925;DHT22;1977;52.274;10.518;2023-12-22T10:07:30;6.50;99.90
3925;DHT22;1977;52.274;10.518;2023-12-22T10:09:59;6.50;99.90
3925;DHT22;1977;52.274;10.518;2023-12-22T10:12:27;6.60;99.90
3925;DHT22;1977;52.274;10.518;2023-12-22T10:14:56;6.60;99.90
3925;DHT22;1977;52.274;10.518;2023-12-22T10:17:24;6.60;99.90
3925;DHT22;1977;52.274;10.518;2023-12-22T10:19:52;6.60;99.90
3925;DHT22;1977;52.274;10.518;2023-12-22T10:22:19;6.60;99.90
3925;DHT22;1977;52.274;10.518;2023-12-22T10:24:49;6.70;99.90
3925;DHT22;1977;52.274;10.518;2023-12-22T10:27:17;6.80;99.90
3925;DHT22;1977;52.274;10.518;2023-12-22T10:29:48;6.80;99.90
3925;DHT22;1977;52.274;10.518;2023-12-22T10:32:15;6.80;99.90
3925;DHT22;1977;52.274;10.518;2023-12-22T10:34:42;6.70;99.90
3925;DHT22;1977;52.274;10.518;2023-12-22T10:37:11;6.80;99.90
3925;DHT22;1977;52.274;10.518;2023-12-22T10:39:39;6.80;99.90
3925;DHT22;1977;52.274;10.518;2023-12-22T10:42:06;6.80;99.90
3925;DHT22;1977;52.274;10.518;2023-12-22T10:44:32;6.80;99.90
3925;DHT22;1977;52.274;10.518;2023-12-22T10:47:00;6.80;99.90
3925;DHT22;1977;52.274;10.518;2023-12-22T10:49:28;6.80;99.90
3925;DHT22;1977;52.274;10.518;2023-12-22T10:51:55;6.90;99.90
3925;DHT22;1977;52.274;10.518;2023-12-22T10:54:23;6.80;99.90
3925;DHT22;1977;52.274;10.518;2023-12-22T10:56:50;6.80;99.90
3925;DHT22;1977;52.274;10.518;2023-12-22T10:59:18;6.80;99.90
3925;DHT22;1977;52.274;10.518;2023-12-22T11:01:51;6.70;99.90
3925;DHT22;1977;52.274;10.518;2023-12-22T11:04:20;6.80;99.90
3925;DHT22;1977;52.274;10.518;2023-12-22T11:06:49;6.70;99.90
3925;DHT22;1977;52.274;10.518;2023-12-22T11:09:23;6.60;99.90
3925;DHT22;1977;52.274;10.518;2023-12-22T11:11:51;6.50;99.90
3925;DHT22;1977;52.274;10.518;2023-12-22T11:14:19;6.20;99.90
3925;DHT22;1977;52.274;10.518;2023-12-22T11:16:47;6.20;99.90
3925;DHT22;1977;52.274;10.518;2023-12-22T11:19:14;6.10;99.90
3925;DHT22;1977;52.274;10.518;2023-12-22T11:21:42;6.10;99.90
3925;DHT22;1977;52.274;10.518;2023-12-22T11:24:11;6.10;99.90
3925;DHT22;1977;52.274;10.518;2023-12-22T11:26:41;6.10;99.90
3925;DHT22;1977;52.274;10.518;2023-12-22T11:29:09;6.10;99.90
3925;DHT22;1977;52.274;10.518;2023-12-22T11:31:37;6.10;99.90
3925;DHT22;1977;52.274;10.518;2023-12-22T11:34:05;6.10;99.90
3925;DHT22;1977;52.274;10.518;2023-12-22T11:36:34;6.20;99.90
3925;DHT22;1977;52.274;10.518;2023-12-22T11:39:02;6.20;99.90
3925;DHT22;1977;52.274;10.518;2023-12-22T11:41:33;6.20;99.90
3925;DHT22;1977;52.274;10.518;2023-12-22T11:44:03;6.30;99.90
3925;DHT22;1977;52.274;10.518;2023-12-22T11:46:30;6.30;99.90
3925;DHT22;1977;52.274;10.518;2023-12-22T11:48:59;6.40;99.90
3925;DHT22;1977;52.274;10.518;2023-12-22T11:51:31;6.40;99.90
3925;DHT22;1977;52.274;10.518;2023-12-22T11:53:59;6.40;99.90
3925;DHT22;1977;52.274;10.518;2023-12-22T11:56:26;6.40;99.90
3925;DHT22;1977;52.274;10.518;2023-12-22T11:58:55;6.40;99.90
3925;DHT22;1977;52.274;10.518;2023-12-22T12:01:25;6.40;99.90
3925;DHT22;1977;52.274;10.518;2023-12-22T12:03:55;6.30;99.90
3925;DHT22;1977;52.274;10.518;2023-12-22T12:06:31;6.20;99.90
3925;DHT22;1977;52.274;10.518;2023-12-22T12:09:00;6.30;99.90
3925;DHT22;1977;52.274;10.518;2023-12-22T12:14:31;6.30;99.90
3925;DHT22;1977;52.274;10.518;2023-12-22T12:17:04;6.30;99.90
3925;DHT22;1977;52.274;10.518;2023-12-22T12:19:33;6.20;99.90
3925;DHT22;1977;52.274;10.518;2023-12-22T12:22:01;6.10;99.90
3925;DHT22;1977;52.274;10.518;2023-12-22T12:24:27;6.20;99.90
3925;DHT22;1977;52.274;10.518;2023-12-22T12:26:54;6.30;99.90
3925;DHT22;1977;52.274;10.518;2023-12-22T12:29:22;6.30;99.90
3925;DHT22;1977;52.274;10.518;2023-12-22T12:31:48;6.30;99.90
3925;DHT22;1977;52.274;10.518;2023-12-22T12:34:17;6.30;99.90
3925;DHT22;1977;52.274;10.518;2023-12-22T12:36:46;6.30;99.90
3925;DHT22;1977;52.274;10.518;2023-12-22T12:39:15;6.30;99.90
3925;DHT22;1977;52.274;10.518;2023-12-22T12:41:43;6.40;99.90
3925;DHT22;1977;52.274;10.518;2023-12-22T12:44:10;6.40;99.90
3925;DHT22;1977;52.274;10.518;2023-12-22T12:46:39;6.40;99.90
3925;DHT22;1977;52.274;10.518;2023-12-22T12:49:08;6.50;99.90
3925;DHT22;1977;52.274;10.518;2023-12-22T12:51:38;6.50;99.90
3925;DHT22;1977;52.274;10.518;2023-12-22T12:54:06;6.60;99.90
3925;DHT22;1977;52.274;10.518;2023-12-22T12:56:37;6.60;99.90
3925;DHT22;1977;52.274;10.518;2023-12-22T12:59:07;6.60;99.90
3925;DHT22;1977;52.274;10.518;2023-12-22T13:01:37;6.60;99.90
3925;DHT22;1977;52.274;10.518;2023-12-22T13:04:04;6.70;99.90
3925;DHT22;1977;52.274;10.518;2023-12-22T13:06:31;6.60;99.90
3925;DHT22;1977;52.274;10.518;2023-12-22T13:09:00;6.70;99.90
3925;DHT22;1977;52.274;10.518;2023-12-22T13:11:29;6.70;99.90
3925;DHT22;1977;52.274;10.518;2023-12-22T13:13:57;6.70;99.90
3925;DHT22;1977;52.274;10.518;2023-12-22T13:16:24;6.80;99.90
3925;DHT22;1977;52.274;10.518;2023-12-22T13:18:52;6.80;99.90
3925;DHT22;1977;52.274;10.518;2023-12-22T13:21:19;6.90;99.90
3925;DHT22;1977;52.274;10.518;2023-12-22T13:23:46;6.80;99.90
3925;DHT22;1977;52.274;10.518;2023-12-22T13:26:20;6.80;99.90
3925;DHT22;1977;52.274;10.518;2023-12-22T13:28:47;6.80;99.90
3925;DHT22;1977;52.274;10.518;2023-12-22T13:31:14;6.90;99.90
3925;DHT22;1977;52.274;10.518;2023-12-22T13:33:44;6.90;99.90
3925;DHT22;1977;52.274;10.518;2023-12-22T13:36:11;6.90;99.90
3925;DHT22;1977;52.274;10.518;2023-12-22T13:38:38;6.90;99.90
3925;DHT22;1977;52.274;10.518;2023-12-22T13:41:07;6.90;99.90
3925;DHT22;1977;52.274;10.518;2023-12-22T13:43:36;6.90;99.90
3925;DHT22;1977;52.274;10.518;2023-12-22T13:46:03;7.10;99.90
3925;DHT22;1977;52.274;10.518;2023-12-22T13:48:30;6.90;99.90
3925;DHT22;1977;52.274;10.518;2023-12-22T13:50:57;6.90;99.90
3925;DHT22;1977;52.274;10.518;2023-12-22T13:53:24;7.10;99.90
3925;DHT22;1977;52.274;10.518;2023-12-22T13:55:55;7.10;99.90
3925;DHT22;1977;52.274;10.518;2023-12-22T13:58:22;7.00;99.90
3925;DHT22;1977;52.274;10.518;2023-12-22T14:00:50;7.00;99.90
3925;DHT22;1977;52.274;10.518;2023-12-22T14:03:17;7.00;99.90
3925;DHT22;1977;52.274;10.518;2023-12-22T14:05:47;7.00;99.90
3925;DHT22;1977;52.274;10.518;2023-12-22T14:08:14;6.90;99.90
3925;DHT22;1977;52.274;10.518;2023-12-22T14:10:45;7.00;99.90
3925;DHT22;1977;52.274;10.518;2023-12-22T14:13:12;7.20;99.90
3925;DHT22;1977;52.274;10.518;2023-12-22T14:15:39;7.40;99.90
3925;DHT22;1977;52.274;10.518;2023-12-22T14:18:07;7.60;99.90
3925;DHT22;1977;52.274;10.518;2023-12-22T14:20:34;7.70;99.90
3925;DHT22;1977;52.274;10.518;2023-12-22T14:23:00;7.90;99.90
3925;DHT22;1977;52.274;10.518;2023-12-22T14:25:27;7.90;99.90
3925;DHT22;1977;52.274;10.518;2023-12-22T14:27:54;7.70;99.90
3925;DHT22;1977;52.274;10.518;2023-12-22T14:30:22;7.40;99.90
3925;DHT22;1977;52.274;10.518;2023-12-22T14:32:49;7.10;99.90
3925;DHT22;1977;52.274;10.518;2023-12-22T14:35:17;7.10;99.90
3925;DHT22;1977;52.274;10.518;2023-12-22T14:37:44;7.00;99.90
3925;DHT22;1977;52.274;10.518;2023-12-22T14:40:13;6.90;99.90
3925;DHT22;1977;52.274;10.518;2023-12-22T14:42:39;6.80;99.90
3925;DHT22;1977;52.274;10.518;2023-12-22T14:45:07;6.80;99.90
3925;DHT22;1977;52.274;10.518;2023-12-22T14:47:33;6.70;99.90
3925;DHT22;1977;52.274;10.518;2023-12-22T14:50:01;6.70;99.90
3925;DHT22;1977;52.274;10.518;2023-12-22T14:52:31;6.70;99.90
3925;DHT22;1977;52.274;10.518;2023-12-22T14:54:58;6.70;99.90
3925;DHT22;1977;52.274;10.518;2023-12-22T14:57:25;6.80;99.90
3925;DHT22;1977;52.274;10.518;2023-12-22T14:59:52;6.80;99.90
3925;DHT22;1977;52.274;10.518;2023-12-22T15:02:19;6.90;99.90
3925;DHT22;1977;52.274;10.518;2023-12-22T15:04:45;6.90;99.90
3925;DHT22;1977;52.274;10.518;2023-12-22T15:07:15;6.90;99.90
3925;DHT22;1977;52.274;10.518;2023-12-22T15:09:43;7.00;99.90
3925;DHT22;1977;52.274;10.518;2023-12-22T15:12:11;7.00;99.90
3925;DHT22;1977;52.274;10.518;2023-12-22T15:14:38;7.10;99.90
3925;DHT22;1977;52.274;10.518;2023-12-22T15:17:10;7.10;99.90
3925;DHT22;1977;52.274;10.518;2023-12-22T15:19:39;7.20;99.90
3925;DHT22;1977;52.274;10.518;2023-12-22T15:22:07;7.20;99.90
3925;DHT22;1977;52.274;10.518;2023-12-22T15:24:36;7.30;99.90
3925;DHT22;1977;52.274;10.518;2023-12-22T15:27:07;7.30;99.90
3925;DHT22;1977;52.274;10.518;2023-12-22T15:29:34;7.20;99.90
3925;DHT22;1977;52.274;10.518;2023-12-22T15:32:00;6.80;99.90
3925;DHT22;1977;52.274;10.518;2023-12-22T15:34:27;6.60;99.90
3925;DHT22;1977;52.274;10.518;2023-12-22T15:36:54;6.40;99.90
3925;DHT22;1977;52.274;10.518;2023-12-22T15:39:21;6.30;99.90
3925;DHT22;1977;52.274;10.518;2023-12-22T15:41:48;6.20;99.90
3925;DHT22;1977;52.274;10.518;2023-12-22T15:44:16;6.40;99.90
3925;DHT22;1977;52.274;10.518;2023-12-22T15:46:43;6.20;99.90
3925;DHT22;1977;52.274;10.518;2023-12-22T15:49:10;6.10;99.90
3925;DHT22;1977;52.274;10.518;2023-12-22T15:51:37;6.10;99.90
3925;DHT22;1977;52.274;10.518;2023-12-22T15:54:04;6.20;99.90
3925;DHT22;1977;52.274;10.518;2023-12-22T15:56:31;6.00;99.90
3925;DHT22;1977;52.274;10.518;2023-12-22T15:58:58;6.30;99.90
3925;DHT22;1977;52.274;10.518;2023-12-22T16:01:26;5.80;99.90
3925;DHT22;1977;52.274;10.518;2023-12-22T16:03:53;5.70;99.90
3925;DHT22;1977;52.274;10.518;2023-12-22T16:06:20;5.60;99.90
3925;DHT22;1977;52.274;10.518;2023-12-22T16:08:47;5.60;99.90
3925;DHT22;1977;52.274;10.518;2023-12-22T16:11:14;5.60;99.90